Time;durP1;ratioP1;P1;durP2;ratioP2;P2;SDS_P1;SDS_P2;PMS_P1;PMS_P2;Temp;Humidity;BMP_temperature;BMP_pressure;BME280_temperature;BME280_humidity;BME280_pressure;Samples;Min_cycle;Max_cycle;Signal;HPM_P1;HPM_P2
2021/03/26 00:01:32;;;;;;;16.55;8.50;;;6.90;99.90;;;6.37;68.56;101263.44;5007461;28;20041;-45
2021/03/26 00:04:04;;;;;;;13.40;8.98;;;6.90;99.90;;;6.31;67.74;101262.91;5007593;28;20386;-47
2021/03/26 00:06:34;;;;;;;14.00;8.40;;;6.90;99.90;;;6.16;68.08;101269.03;5007671;28;20426;-45
2021/03/26 00:09:01;;;;;;;19.65;10.07;;;6.80;99.90;;;6.00;68.27;101265.78;5007429;28;20100;-46
2021/03/26 00:11:30;;;;;;;17.23;10.73;;;6.70;99.90;;;5.82;68.72;101264.28;5007993;28;20053;-46
2021/03/26 00:13:56;;;;;;;18.13;9.68;;;6.50;99.90;;;5.73;69.07;101268.25;5007882;28;20100;-49
2021/03/26 00:16:23;;;;;;;14.98;9.57;;;6.40;99.90;;;5.83;68.66;101271.94;5011426;28;20049;-48
2021/03/26 00:18:50;;;;;;;16.67;8.32;;;6.30;99.90;;;6.06;68.75;101267.16;5011612;28;20072;-51
2021/03/26 00:21:18;;;;;;;13.38;7.50;;;6.50;99.90;;;6.28;68.43;101259.66;5011856;28;20038;-48
2021/03/26 00:23:44;;;;;;;17.27;10.07;;;6.70;99.90;;;6.32;68.14;101261.13;5008998;28;20437;-47
2021/03/26 00:26:10;;;;;;;15.80;8.73;;;6.80;99.90;;;6.31;68.48;101259.47;5011790;28;20379;-51
2021/03/26 00:28:37;;;;;;;15.82;7.80;;;6.80;99.90;;;6.38;68.08;101262.50;5010922;28;20045;-50
2021/03/26 00:31:04;;;;;;;14.98;8.13;;;6.90;99.90;;;6.41;67.38;101257.13;4993635;28;20521;-44
2021/03/26 00:33:30;;;;;;;17.10;8.77;;;6.90;99.90;;;6.41;68.21;101255.38;5011401;28;20478;-47
2021/03/26 00:35:56;;;;;;;16.08;8.38;;;6.90;99.90;;;6.46;68.01;101257.66;5010952;28;20026;-49
2021/03/26 00:38:24;;;;;;;11.23;7.38;;;6.90;99.90;;;6.55;68.10;101252.75;5011674;28;20128;-50
2021/03/26 00:40:51;;;;;;;15.02;8.27;;;7.00;99.90;;;6.51;67.59;101253.03;5011107;28;20508;-49
2021/03/26 00:43:18;;;;;;;15.65;9.23;;;7.00;99.90;;;6.26;67.96;101261.53;5010619;28;20061;-46
2021/03/26 00:45:44;;;;;;;19.55;10.45;;;6.90;99.90;;;5.90;68.71;101251.75;5011258;28;20057;-51
2021/03/26 00:48:11;;;;;;;19.40;10.82;;;6.60;99.90;;;5.60;69.42;101264.78;5011119;28;20022;-45
2021/03/26 00:50:46;;;;;;;19.27;11.15;;;6.30;99.90;;;5.41;69.88;101254.72;5010784;28;20029;-47
2021/03/26 00:53:17;;;;;;;18.98;10.90;;;6.10;99.90;;;5.27;70.04;101260.69;5010936;28;20489;-45
2021/03/26 00:55:43;;;;;;;23.15;13.50;;;6.00;99.90;;;5.41;69.59;101251.28;5011282;28;20038;-47
2021/03/26 00:58:09;;;;;;;20.15;12.23;;;6.00;99.90;;;5.43;69.72;101257.22;5010908;28;20050;-43
2021/03/26 01:00:39;;;;;;;18.30;10.27;;;6.00;99.90;;;5.60;69.28;101255.28;4993465;28;20070;-47
2021/03/26 01:03:08;;;;;;;17.90;10.10;;;6.00;99.90;;;5.72;69.33;101252.84;5010542;28;20038;-48
2021/03/26 01:05:37;;;;;;;16.63;9.82;;;6.20;99.90;;;5.85;69.17;101251.16;5010940;28;20045;-43
2021/03/26 01:08:04;;;;;;;17.63;9.20;;;6.30;99.90;;;5.95;68.79;101247.13;5010587;28;20030;-47
2021/03/26 01:10:36;;;;;;;18.02;8.10;;;6.40;99.90;;;6.05;69.26;101237.84;5010542;28;20465;-47
2021/03/26 01:13:05;;;;;;;15.60;8.10;;;6.50;99.90;;;6.12;68.98;101235.72;5010562;28;20034;-45
2021/03/26 01:15:32;;;;;;;13.13;8.80;;;6.60;99.90;;;6.17;68.86;101234.47;5010374;28;20037;-43
2021/03/26 01:18:01;;;;;;;14.63;7.97;;;6.60;99.90;;;6.14;68.56;101239.88;5010718;28;20576;-47
2021/03/26 01:20:33;;;;;;;12.85;8.25;;;6.70;99.90;;;6.21;68.66;101241.09;4992553;28;20042;-53
2021/03/26 01:22:59;;;;;;;13.27;8.40;;;6.70;99.90;;;6.26;68.46;101238.22;5010377;28;20892;-50
2021/03/26 01:25:35;;;;;;;13.45;8.25;;;6.70;99.90;;;6.27;69.32;101227.78;5010573;28;20053;-47
2021/03/26 01:28:01;;;;;;;;;;;6.80;99.90;;;6.33;70.08;101232.56;5009954;28;20069;-43
2021/03/26 01:30:30;;;;;;;15.52;7.97;;;6.80;99.90;;;6.31;68.14;101226.66;5010452;28;19921;-48
2021/03/26 01:32:56;;;;;;;17.83;8.13;;;6.80;99.90;;;6.33;68.80;101229.16;4992683;28;20138;-46
2021/03/26 01:35:23;;;;;;;13.05;7.97;;;6.80;99.90;;;6.33;68.59;101235.16;5010648;28;20456;-47
2021/03/26 01:37:49;;;;;;;18.00;8.50;;;6.90;99.90;;;6.44;68.03;101237.06;5010003;28;20117;-47
2021/03/26 01:40:27;;;;;;;15.73;8.63;;;6.90;99.90;;;6.43;68.89;101229.41;5010311;28;20515;-53
2021/03/26 01:43:03;;;;;;;15.30;8.45;;;6.90;99.90;;;6.54;68.34;101229.53;5009789;28;20057;-50
2021/03/26 01:45:30;;;;;;;15.45;8.60;;;7.00;99.90;;;6.49;68.21;101229.84;5001536;28;20343;-46
2021/03/26 01:47:56;;;;;;;16.08;9.77;;;7.00;99.90;;;6.33;68.17;101235.16;5009750;28;20026;-48
2021/03/26 01:50:29;;;;;;;15.93;9.38;;;6.90;99.90;;;6.04;68.67;101233.59;5010504;28;20033;-47
2021/03/26 01:52:55;;;;;;;17.40;10.63;;;6.70;99.90;;;5.87;68.91;101228.63;4992300;28;20037;-47
2021/03/26 01:55:44;;;;;;;18.95;9.63;;;6.50;99.90;;;5.75;69.68;101234.53;4990456;28;20490;-47
2021/03/26 01:58:18;;;;;;;17.27;9.88;;;6.40;99.90;;;5.68;69.71;101241.84;4992211;28;20042;-51
2021/03/26 02:00:50;;;;;;;16.10;9.77;;;6.30;99.90;;;5.47;69.95;101238.84;4993172;28;20164;-50
2021/03/26 02:03:32;;;;;;;15.57;9.57;;;6.20;99.90;;;5.30;71.01;101239.84;4992324;28;20061;-49
2021/03/26 02:06:05;;;;;;;18.33;9.25;;;6.00;99.90;;;5.27;70.73;101236.63;5010035;28;20064;-52
2021/03/26 02:08:36;;;;;;;13.95;8.48;;;5.90;99.90;;;5.22;70.75;101233.47;4992220;28;20086;-48
2021/03/26 02:11:41;;;;;;;14.93;9.45;;;5.90;99.90;;;5.40;70.52;101231.53;5009976;28;20038;-50
2021/03/26 02:14:15;;;;;;;16.20;9.25;;;5.90;99.90;;;5.35;70.25;101229.25;5008691;28;20038;-47
2021/03/26 02:16:42;;;;;;;17.70;9.40;;;5.90;99.90;;;5.44;70.24;101230.44;4976855;28;20060;-47
2021/03/26 02:19:22;;;;;;;15.65;9.25;;;6.00;99.90;;;5.39;70.20;101228.13;4992101;28;20044;-52
2021/03/26 02:21:48;;;;;;;21.52;10.23;;;5.90;99.90;;;5.31;69.94;101236.34;5009429;28;20042;-52
2021/03/26 02:24:14;;;;;;;15.50;9.25;;;5.90;99.90;;;5.12;70.97;101235.78;5008990;28;20171;-43
2021/03/26 02:26:46;;;;;;;15.80;9.70;;;5.80;99.90;;;5.08;70.98;101241.22;4991618;28;20091;-47
2021/03/26 02:29:23;;;;;;;15.45;10.07;;;5.70;99.90;;;5.10;71.11;101245.38;4989822;28;20049;-48
2021/03/26 02:31:56;;;;;;;17.10;10.77;;;5.70;99.90;;;5.13;70.64;101244.38;4972904;28;20121;-54
2021/03/26 02:34:24;;;;;;;18.70;10.70;;;5.70;99.90;;;5.01;70.80;101245.91;4989685;28;20035;-47
2021/03/26 02:37:00;;;;;;;18.95;9.98;;;5.70;99.90;;;4.92;71.18;101246.44;4988124;28;20053;-50
2021/03/26 02:39:33;;;;;;;14.77;10.18;;;5.50;99.90;;;4.90;71.30;101243.97;4989870;28;20034;-48
2021/03/26 02:42:05;;;;;;;16.90;10.65;;;5.50;99.90;;;4.85;71.28;101243.41;4860017;23;20955;-47
2021/03/26 02:45:04;;;;;;;15.55;9.80;;;5.50;99.90;;;4.71;71.78;101242.56;4990556;28;20107;-48
2021/03/26 02:47:56;;;;;;;14.65;9.38;;;5.30;99.90;;;4.76;71.89;101246.50;4995651;28;20038;-53
2021/03/26 02:50:37;;;;;;;13.75;9.50;;;5.30;99.90;;;4.73;71.77;101246.69;5008867;28;20205;-45
2021/03/26 02:53:21;;;;;;;12.23;8.30;;;5.30;99.90;;;4.64;72.30;101248.06;5009084;28;20041;-45
2021/03/26 02:56:13;;;;;;;16.88;9.63;;;5.20;99.90;;;4.70;71.86;101249.47;4991608;28;20048;-50
2021/03/26 02:58:49;;;;;;;18.23;9.07;;;5.30;99.90;;;4.79;71.75;101250.66;5008812;28;20325;-52
2021/03/26 03:01:45;;;;;;;17.15;8.77;;;5.30;99.90;;;5.11;72.40;101253.97;5008503;28;20111;-52
2021/03/26 03:04:39;;;;;;;14.43;8.48;;;5.50;99.90;;;5.16;70.93;101254.53;4967571;28;20050;-48
2021/03/26 03:07:29;;;;;;;13.80;8.23;;;5.70;99.90;;;5.29;71.61;101256.28;5008300;28;20073;-48
2021/03/26 03:10:25;;;;;;;15.23;7.95;;;5.80;99.90;;;5.33;71.12;101257.75;5008672;28;20576;-47
2021/03/26 03:13:00;;;;;;;12.05;8.50;;;5.90;99.90;;;5.34;70.66;101248.25;4993259;28;20579;-44
2021/03/26 03:15:35;;;;;;;17.00;8.95;;;5.90;99.90;;;5.38;70.73;101257.47;4991266;28;20037;-48
2021/03/26 03:18:32;;;;;;;14.10;9.43;;;5.90;99.90;;;5.56;72.96;101253.78;4991263;28;20036;-45
2021/03/26 03:21:03;;;;;;;;;;;6.00;99.90;;;5.74;72.99;101251.00;4990340;28;20045;-45
2021/03/26 03:23:55;;;;;;;18.20;8.45;;;6.10;99.90;;;5.79;72.26;101254.97;4990425;28;19917;-47
2021/03/26 03:27:14;;;;;;;16.58;9.35;;;6.30;99.90;;;5.79;72.44;101261.88;4990907;28;20507;-48
2021/03/26 03:30:15;;;;;;;20.77;7.78;;;6.30;99.90;;;5.81;72.21;101260.03;5007956;28;20145;-46
2021/03/26 03:32:50;;;;;;;13.55;7.47;;;6.30;99.90;;;5.79;71.82;101264.47;4927813;29;20339;-48
2021/03/26 03:35:57;;;;;;;16.20;9.48;;;6.30;99.90;;;5.83;71.77;101265.94;4927687;29;20055;-47
2021/03/26 03:38:33;;;;;;;15.57;8.65;;;6.30;99.90;;;5.81;70.66;101267.78;4927747;29;20059;-49
2021/03/26 03:41:14;;;;;;;15.15;8.88;;;6.30;99.90;;;5.80;70.92;101271.31;4912464;29;20209;-49
2021/03/26 03:44:13;;;;;;;15.70;9.90;;;6.30;99.90;;;5.83;71.64;101274.53;4927626;29;20568;-46
2021/03/26 03:47:07;;;;;;;14.13;8.43;;;6.40;99.90;;;5.89;71.07;101270.78;4870861;29;20145;-51
2021/03/26 03:50:10;;;;;;;14.82;8.38;;;6.40;99.90;;;5.85;71.42;101266.69;4857002;29;20059;-46
2021/03/26 03:53:04;;;;;;;15.20;8.93;;;6.40;99.90;;;5.79;71.25;101264.47;4857757;29;20158;-48
2021/03/26 03:55:50;;;;;;;19.92;8.20;;;6.40;99.90;;;5.77;70.64;101261.97;4870747;29;20041;-49
2021/03/26 03:58:24;;;;;;;15.88;8.90;;;6.30;99.90;;;5.70;70.98;101259.84;4871254;29;20127;-45
2021/03/26 04:01:04;;;;;;;12.05;8.35;;;6.30;99.90;;;5.78;71.64;101261.06;4870694;29;20045;-43
2021/03/26 04:03:57;;;;;;;11.48;8.27;;;6.30;99.90;;;5.80;71.02;101268.72;4855466;29;20112;-50
2021/03/26 04:07:02;;;;;;;14.85;8.77;;;6.30;99.90;;;5.77;70.43;101266.31;4857691;29;20041;-46
2021/03/26 04:10:00;;;;;;;14.82;8.85;;;6.30;99.90;;;5.65;70.60;101263.59;4868880;29;20051;-46
2021/03/26 04:12:38;;;;;;;15.93;9.55;;;6.20;99.90;;;5.64;71.55;101274.00;4927684;29;20055;-44
2021/03/26 04:15:21;;;;;;;12.25;8.05;;;6.20;99.90;;;5.66;70.90;101273.00;4931077;29;20402;-51
2021/03/26 04:18:04;;;;;;;16.55;9.40;;;6.20;99.90;;;5.52;70.11;101278.16;4945815;29;20094;-46
2021/03/26 04:20:37;;;;;;;15.43;9.38;;;6.20;99.90;;;5.42;70.86;101277.06;4946287;29;20514;-45
2021/03/26 04:23:25;;;;;;;12.13;8.20;;;6.00;99.90;;;5.28;71.92;101275.28;4968456;28;20107;-51
2021/03/26 04:26:18;;;;;;;15.20;8.77;;;5.90;99.90;;;5.44;72.04;101279.53;5007222;28;20034;-46
2021/03/26 04:29:00;;;;;;;21.15;9.32;;;5.90;99.90;;;5.39;71.23;101277.22;4989626;28;20115;-50
2021/03/26 04:31:34;;;;;;;14.50;8.07;;;5.90;99.90;;;5.53;71.47;101279.00;4990886;28;20060;-48
2021/03/26 04:34:01;;;;;;;14.50;8.88;;;6.00;99.90;;;5.62;71.25;101281.03;4990027;28;20519;-52
2021/03/26 04:37:10;;;;;;;18.35;9.07;;;6.10;99.90;;;5.72;71.58;101283.88;4989601;28;20030;-45
2021/03/26 04:40:10;;;;;;;17.35;8.32;;;6.20;99.90;;;5.75;71.28;101283.69;4987095;28;20049;-47
2021/03/26 04:43:15;;;;;;;15.27;7.40;;;6.20;99.90;;;5.73;71.18;101286.34;4967070;28;20113;-47
2021/03/26 04:46:11;;;;;;;17.80;9.13;;;6.20;99.90;;;5.66;71.15;101288.50;4971704;28;20038;-48
2021/03/26 04:48:51;;;;;;;19.05;9.15;;;6.20;99.90;;;5.74;71.37;101292.34;4987778;28;20034;-50
2021/03/26 04:52:06;;;;;;;15.48;8.95;;;6.20;99.90;;;5.74;71.67;101292.34;4986375;28;20572;-46
2021/03/26 04:54:47;;;;;;;20.45;8.75;;;6.20;99.90;;;5.73;71.30;101295.88;4987165;28;20054;-49
2021/03/26 04:57:35;;;;;;;10.90;7.93;;;6.20;99.90;;;5.77;71.24;101294.75;4987650;28;20449;-46
2021/03/26 05:00:36;;;;;;;15.57;9.25;;;6.30;99.90;;;5.77;71.52;101298.19;4985897;28;20041;-45
2021/03/26 05:03:29;;;;;;;17.92;10.68;;;6.30;99.90;;;5.74;71.24;101290.59;4990976;28;20052;-50
2021/03/26 05:06:19;;;;;;;15.35;9.15;;;6.30;99.90;;;5.79;71.78;101292.91;4986834;28;20042;-46
2021/03/26 05:08:54;;;;;;;13.88;8.10;;;6.30;99.90;;;5.83;71.49;101302.16;4989891;28;20042;-50
2021/03/26 05:11:24;;;;;;;17.30;8.98;;;6.30;99.90;;;5.86;70.88;101299.38;4970594;28;20486;-48
2021/03/26 05:14:03;;;;;;;15.90;9.25;;;6.30;99.90;;;5.86;71.50;101296.78;4970600;28;20039;-53
2021/03/26 05:17:07;;;;;;;14.70;8.13;;;6.40;99.90;;;5.91;71.28;101294.78;4971632;28;20050;-44
2021/03/26 05:19:43;;;;;;;12.65;8.73;;;6.40;99.90;;;5.89;70.83;101302.63;4974782;28;20154;-48
2021/03/26 05:22:34;;;;;;;16.65;8.38;;;6.40;99.90;;;5.94;71.08;101304.94;4989435;28;20486;-52
2021/03/26 05:25:11;;;;;;;17.85;8.80;;;6.50;99.90;;;6.01;70.77;101306.22;4990457;28;20119;-52
2021/03/26 05:27:38;;;;;;;14.05;8.45;;;6.50;99.90;;;6.04;70.13;101303.47;4989647;28;20050;-50
2021/03/26 05:30:08;;;;;;;13.35;7.50;;;6.60;99.90;;;6.07;71.08;101308.44;4990443;28;20041;-46
2021/03/26 05:32:51;;;;;;;15.48;8.32;;;6.70;99.90;;;6.12;71.35;101311.59;5005661;28;20569;-48
2021/03/26 05:35:32;;;;;;;14.43;9.70;;;6.70;99.90;;;6.23;71.16;101310.88;4989248;28;20525;-52
2021/03/26 05:38:36;;;;;;;16.98;9.77;;;6.80;99.90;;;6.58;70.36;101312.09;4991057;28;20374;-44
2021/03/26 05:41:49;;;;;;;15.60;9.63;;;7.10;99.90;;;6.98;68.00;101320.69;4986767;28;20054;-53
2021/03/26 05:44:36;;;;;;;16.88;9.35;;;7.70;99.90;;;7.57;66.18;101310.66;4978281;28;20125;-51
2021/03/26 05:47:40;;;;;;;15.68;8.93;;;8.30;99.90;;;8.51;62.52;101325.72;4971004;28;20056;-49
2021/03/26 05:51:03;;;;;;;13.30;8.23;;;9.50;99.90;;;9.15;60.25;101331.41;4976873;28;20038;-50
2021/03/26 05:54:00;;;;;;;13.93;9.13;;;10.50;96.90;;;9.14;60.67;101338.38;4967661;28;20417;-48
2021/03/26 05:56:58;;;;;;;14.23;8.60;;;11.20;92.60;;;9.70;59.78;101337.63;4955758;28;20062;-51
2021/03/26 05:59:47;;;;;;;13.98;7.97;;;11.90;90.10;;;9.78;60.76;101337.88;4967617;28;20050;-49
2021/03/26 06:02:53;;;;;;;14.32;8.30;;;12.50;82.90;;;9.64;58.35;101344.97;4965491;28;20043;-48
2021/03/26 06:05:56;;;;;;;15.68;8.32;;;12.40;81.50;;;9.63;58.66;101347.69;4967864;28;20061;-51
2021/03/26 06:08:43;;;;;;;19.30;9.80;;;12.50;78.80;;;10.00;59.12;101343.06;4967441;28;20129;-51
2021/03/26 06:12:15;;;;;;;15.75;8.85;;;12.80;78.60;;;10.51;56.72;101351.16;4967055;28;20089;-50
2021/03/26 06:15:16;;;;;;;13.43;7.55;;;13.40;75.30;;;10.86;54.56;101350.94;4871991;29;20041;-54
2021/03/26 06:17:54;;;;;;;14.95;9.10;;;14.20;69.40;;;10.40;55.97;101353.00;4872838;29;20048;-50
2021/03/26 06:20:44;;;;;;;16.02;8.02;;;13.90;68.60;;;10.30;55.94;101358.94;4872364;29;20045;-51
2021/03/26 06:23:21;;;;;;;15.38;8.57;;;13.50;69.60;;;10.79;54.52;101364.59;4873087;29;20151;-50
2021/03/26 06:26:15;;;;;;;16.08;7.93;;;13.90;67.60;;;10.99;54.60;101355.97;4909997;29;20048;-51
2021/03/26 06:29:25;;;;;;;15.63;8.45;;;13.80;67.80;;;10.53;54.19;101374.50;4896291;29;20052;-51
2021/03/26 06:32:47;;;;;;;13.43;7.72;;;12.90;68.50;;;9.80;56.50;101364.63;4909769;29;20051;-49
2021/03/26 06:35:30;;;;;;;13.55;8.43;;;11.50;74.60;;;9.29;58.54;101367.63;4909580;29;20127;-51
2021/03/26 06:38:04;;;;;;;21.55;8.32;;;10.40;81.20;;;9.01;59.47;101373.19;4909646;29;20055;-49
2021/03/26 06:41:02;;;;;;;11.57;8.55;;;10.00;85.80;;;8.81;60.02;101365.06;4875609;29;20100;-52
2021/03/26 06:43:52;;;;;;;11.70;8.00;;;9.70;89.00;;;8.64;60.68;101368.88;4889828;29;20071;-49
2021/03/26 06:46:32;;;;;;;14.07;7.82;;;9.50;91.60;;;8.95;60.06;101375.31;4910027;29;20056;-52
2021/03/26 06:49:55;;;;;;;18.20;7.78;;;9.50;92.70;;;9.19;59.33;101377.84;4967938;28;20142;-53
2021/03/26 06:52:59;;;;;;;13.98;7.35;;;9.70;92.80;;;8.98;58.92;101372.47;4989038;28;20038;-52
2021/03/26 06:56:12;;;;;;;15.80;8.18;;;9.60;92.70;;;9.07;58.77;101385.72;4967905;28;20097;-54
2021/03/26 06:59:11;;;;;;;17.50;9.23;;;9.70;92.70;;;9.19;58.69;101392.63;4975426;28;20034;-49
2021/03/26 07:02:01;;;;;;;17.65;8.68;;;9.80;92.60;;;9.52;57.72;101391.88;4987780;28;20124;-53
2021/03/26 07:05:03;;;;;;;16.92;8.88;;;10.00;92.30;;;9.78;56.70;101382.13;4988658;28;20226;-53
2021/03/26 07:08:09;;;;;;;15.57;8.65;;;10.30;91.60;;;9.90;56.39;101381.19;4988970;28;20050;-51
2021/03/26 07:11:11;;;;;;;15.40;8.00;;;10.60;90.60;;;9.79;57.03;101389.81;4966837;28;20054;-51
2021/03/26 07:14:03;;;;;;;17.50;8.90;;;10.60;90.00;;;9.90;57.03;101396.81;4931751;29;20039;-49
2021/03/26 07:16:38;;;;;;;11.43;7.93;;;10.50;90.40;;;10.00;56.37;101397.72;4947476;29;20137;-53
2021/03/26 07:19:28;;;;;;;13.43;7.97;;;10.60;90.20;;;10.17;55.28;101386.84;4940170;29;20068;-48
2021/03/26 07:22:40;;;;;;;11.90;7.63;;;10.70;89.70;;;10.37;54.66;101390.53;4928045;29;20134;-49
2021/03/26 07:26:03;;;;;;;13.30;8.30;;;10.90;88.70;;;10.59;54.06;101402.69;4928068;29;20555;-51
2021/03/26 07:29:27;;;;;;;14.38;7.63;;;11.10;87.60;;;10.99;52.68;101395.09;4927843;29;20138;-55
2021/03/26 07:32:10;;;;;;;13.45;7.70;;;11.40;86.40;;;11.07;52.65;101399.69;4964095;23;20055;-51
2021/03/26 07:35:13;;;;;;;15.15;7.57;;;11.60;83.60;;;11.31;52.12;101400.28;4949289;29;20097;-51
2021/03/26 07:38:22;;;;;;;12.82;7.38;;;11.80;82.90;;;11.45;50.88;101399.97;4930449;29;20044;-50
2021/03/26 07:41:45;;;;;;;13.55;7.70;;;12.00;80.10;;;11.59;51.29;101409.25;4948069;29;20051;-49
2021/03/26 07:45:08;;;;;;;13.65;8.38;;;12.10;80.00;;;11.77;51.07;101406.94;4870866;29;20464;-46
2021/03/26 07:47:59;;;;;;;15.00;7.90;;;12.30;79.90;;;11.84;49.73;101403.63;4870359;29;20413;-45
2021/03/26 07:50:39;;;;;;;11.98;7.45;;;12.30;77.80;;;12.02;50.41;101414.31;4870473;29;20049;-47
2021/03/26 07:53:39;;;;;;;12.70;8.15;;;12.40;77.80;;;12.02;50.88;101414.31;4871126;29;20041;-50
2021/03/26 07:56:14;;;;;;;13.43;7.32;;;12.50;77.70;;;12.43;49.91;101415.16;4871115;29;20402;-46
2021/03/26 07:59:40;;;;;;;12.55;7.75;;;12.70;77.10;;;12.51;49.09;101410.06;4870907;29;20076;-45
2021/03/26 08:02:53;;;;;;;13.25;7.47;;;12.90;75.50;;;12.78;48.03;101420.72;4865726;29;20457;-47
2021/03/26 08:05:21;;;;;;;20.20;8.52;;;13.10;75.10;;;13.04;48.98;101422.81;4870720;29;20056;-48
2021/03/26 08:08:05;;;;;;;16.83;7.90;;;13.40;73.80;;;13.14;46.71;101421.03;4870661;29;20100;-46
2021/03/26 08:11:06;;;;;;;14.05;8.07;;;13.50;72.70;;;13.27;46.91;101425.03;4871174;29;20089;-47
2021/03/26 08:13:53;;;;;;;12.68;7.63;;;13.60;71.10;;;13.45;45.77;101425.16;4870203;29;20052;-49
2021/03/26 08:16:47;;;;;;;16.45;7.88;;;13.90;69.80;;;13.59;45.91;101416.06;4870591;29;20144;-46
2021/03/26 08:20:00;;;;;;;12.05;7.75;;;13.90;70.20;;;13.67;43.14;101428.44;4881482;29;20160;-49
2021/03/26 08:22:53;;;;;;;20.10;8.95;;;14.00;68.50;;;14.03;43.61;101432.88;4908157;29;20111;-50
2021/03/26 08:25:53;;;;;;;13.63;8.07;;;14.30;67.30;;;14.21;43.83;101431.13;4922331;29;20088;-51
2021/03/26 08:28:39;;;;;;;16.60;7.70;;;14.60;66.30;;;14.64;43.94;101428.91;4907296;29;20054;-48
2021/03/26 08:31:20;;;;;;;;;;;15.00;66.00;;;14.76;42.41;101436.38;4907427;29;20051;-52
2021/03/26 08:34:29;;;;;;;18.50;7.75;;;15.10;63.30;;;15.25;41.18;101437.66;4906973;29;19930;-49
2021/03/26 08:37:28;;;;;;;13.68;8.32;;;15.50;64.50;;;15.51;41.62;101434.28;4905981;29;20598;-51
2021/03/26 08:40:25;;;;;;;18.02;7.55;;;15.70;63.30;;;15.33;40.75;101431.66;4925053;29;20089;-50
2021/03/26 08:42:54;;;;;;;21.23;8.98;;;15.80;61.10;;;15.30;42.80;101439.00;4911420;29;20040;-47
2021/03/26 08:45:34;;;;;;;13.50;7.65;;;15.70;62.40;;;15.24;41.84;101443.88;4911895;29;20048;-47
2021/03/26 08:48:29;;;;;;;16.27;7.90;;;15.70;61.00;;;15.20;42.36;101449.59;4923512;29;20043;-50
2021/03/26 08:51:39;;;;;;;17.10;8.30;;;15.70;61.00;;;15.39;40.53;101441.56;4892418;29;20052;-52
2021/03/26 08:54:33;;;;;;;15.57;8.80;;;15.80;59.30;;;15.84;39.86;101448.47;4910519;29;20036;-50
2021/03/26 08:57:13;;;;;;;20.88;9.38;;;16.20;58.90;;;15.98;40.47;101453.16;4911102;29;20110;-48
2021/03/26 09:00:22;;;;;;;20.42;9.32;;;16.40;59.80;;;16.09;39.56;101444.16;4951328;29;20035;-46
2021/03/26 09:03:12;;;;;;;17.27;8.05;;;16.50;58.70;;;16.27;39.70;101453.63;4951792;29;20130;-50
2021/03/26 09:06:12;;;;;;;15.40;8.93;;;16.70;58.50;;;16.20;39.96;101449.16;4952418;29;20043;-51
2021/03/26 09:09:08;;;;;;;14.98;8.98;;;16.60;58.40;;;16.25;37.99;101452.13;4950661;29;20043;-51
2021/03/26 09:11:59;;;;;;;;;;;16.80;55.80;;;16.23;38.50;101459.34;4951385;28;20055;-52
2021/03/26 09:14:25;;;;;;;14.68;9.07;;;16.70;56.30;;;16.34;40.59;101459.09;4951627;29;19922;-52
2021/03/26 09:17:22;;;;;;;14.45;8.65;;;16.80;57.70;;;16.24;37.97;101451.31;4946945;28;20046;-52
2021/03/26 09:20:39;;;;;;;15.68;8.05;;;16.70;56.50;;;16.46;37.37;101454.38;4951750;28;20087;-51
2021/03/26 09:23:32;;;;;;;14.88;8.18;;;16.80;55.70;;;16.73;36.70;101456.78;4951876;28;20038;-53
2021/03/26 09:26:31;;;;;;;14.25;8.40;;;17.00;54.40;;;16.92;35.63;101453.03;4952148;29;20043;-51
2021/03/26 09:29:02;;;;;;;15.68;8.57;;;17.20;54.70;;;17.02;37.81;101458.13;4940751;29;20058;-51
2021/03/26 09:31:47;;;;;;;18.55;8.75;;;17.30;54.90;;;17.29;37.09;101463.13;4974725;28;20133;-50
2021/03/26 09:34:32;;;;;;;16.75;9.45;;;17.60;54.50;;;17.20;36.47;101453.56;4965112;28;20043;-52
2021/03/26 09:37:23;;;;;;;16.23;8.48;;;17.60;53.80;;;17.33;35.80;101459.16;4967248;28;20034;-51
2021/03/26 09:39:57;;;;;;;20.67;10.02;;;17.70;53.20;;;17.27;36.90;101459.81;4985333;28;20035;-48
2021/03/26 09:43:04;;;;;;;14.05;9.15;;;17.70;54.00;;;17.35;36.00;101454.56;4981342;28;20457;-52
2021/03/26 09:45:48;;;;;;;22.05;10.18;;;17.70;53.40;;;17.28;36.39;101456.19;4984051;28;20042;-53
2021/03/26 09:48:23;;;;;;;16.45;9.02;;;17.80;53.00;;;17.37;36.34;101455.22;4982534;28;20038;-50
2021/03/26 09:51:14;;;;;;;20.65;9.93;;;17.80;52.90;;;17.52;35.61;101448.28;4991266;28;20441;-54
2021/03/26 09:53:42;;;;;;;24.58;11.52;;;17.90;52.30;;;17.35;37.38;101457.19;4974232;28;20035;-47
2021/03/26 09:57:03;;;;;;;18.60;10.80;;;17.80;53.60;;;17.63;35.59;101456.84;4973471;28;20038;-48
2021/03/26 09:59:36;;;;;;;22.05;11.70;;;17.90;52.60;;;17.52;35.62;101453.53;4980064;28;20055;-47
2021/03/26 10:02:52;;;;;;;19.55;12.00;;;17.90;53.10;;;17.65;35.37;101441.69;4991128;28;20045;-54
2021/03/26 10:05:39;;;;;;;20.55;11.02;;;18.00;52.30;;;17.70;35.96;101440.22;4990109;28;20577;-51
2021/03/26 10:11:21;;;;;;;18.92;11.90;;;18.20;51.90;;;17.69;36.05;101437.75;4971387;28;20130;-48
2021/03/26 10:13:57;;;;;;;17.73;10.98;;;18.10;52.80;;;17.52;36.01;101431.63;4960466;28;20026;-52
2021/03/26 10:16:40;;;;;;;22.85;11.80;;;18.00;52.60;;;17.51;36.13;101446.63;4990620;28;20053;-54
2021/03/26 10:19:31;;;;;;;22.42;13.52;;;17.90;52.80;;;17.77;35.97;101441.19;4988454;28;20038;-47
2021/03/26 10:22:00;;;;;;;21.10;13.27;;;18.10;52.80;;;17.95;36.20;101440.19;4989362;28;20562;-51
2021/03/26 10:24:36;;;;;;;19.98;11.82;;;18.30;52.20;;;18.19;35.66;101429.53;4971710;28;20378;-52
2021/03/26 10:27:26;;;;;;;19.13;12.48;;;18.50;52.30;;;18.18;34.66;101438.44;4989080;28;20053;-53
2021/03/26 10:30:36;;;;;;;21.30;13.52;;;18.60;51.70;;;17.42;35.99;101431.00;4972859;28;20034;-53
2021/03/26 10:33:13;;;;;;;25.85;13.05;;;18.00;51.80;;;17.83;37.08;101429.16;4987956;28;20045;-55
2021/03/26 10:36:00;;;;;;;23.20;12.90;;;18.10;53.50;;;18.29;36.39;101424.88;4990533;28;20663;-52
2021/03/26 10:38:36;;;;;;;24.23;13.75;;;18.50;53.50;;;18.42;35.69;101419.88;4989774;28;20080;-53
2021/03/26 10:41:14;;;;;;;27.90;14.07;;;18.70;52.00;;;18.09;36.10;101421.81;4988557;28;20055;-51
2021/03/26 10:44:02;;;;;;;22.88;14.45;;;18.60;51.70;;;17.90;36.52;101416.97;4954105;28;20049;-51
2021/03/26 10:46:47;;;;;;;24.00;14.07;;;18.40;52.30;;;18.22;35.22;101408.09;4908129;29;20168;-55
2021/03/26 10:49:41;;;;;;;26.25;15.13;;;18.50;51.80;;;18.34;35.41;101411.19;4913138;29;20091;-49
2021/03/26 10:52:15;;;;;;;27.00;15.15;;;18.70;52.10;;;18.41;35.04;101409.50;4896278;29;20052;-50
2021/03/26 10:54:53;;;;;;;27.67;15.70;;;18.70;52.30;;;18.39;34.71;101409.69;4910055;29;20044;-54
2021/03/26 10:57:43;;;;;;;28.35;17.10;;;18.70;51.90;;;18.46;34.18;101399.22;4891541;29;20165;-52
2021/03/26 11:00:20;;;;;;;27.52;16.13;;;18.80;50.70;;;18.46;34.88;101402.69;4923238;29;20044;-53
2021/03/26 11:02:51;;;;;;;25.35;15.90;;;18.80;51.90;;;18.50;35.01;101401.34;4909941;29;20134;-55
2021/03/26 11:05:36;;;;;;;28.45;16.65;;;18.80;51.30;;;18.28;34.91;101396.03;4928004;29;20047;-54
2021/03/26 11:08:02;;;;;;;32.72;17.13;;;18.80;51.00;;;18.33;35.33;101401.63;4890896;29;20037;-55
2021/03/26 11:10:51;;;;;;;29.10;16.70;;;18.70;50.90;;;17.98;34.93;101395.81;4892166;29;20133;-56
2021/03/26 11:13:41;;;;;;;27.80;16.67;;;18.50;51.10;;;18.36;35.34;101398.66;4890811;29;20040;-52
2021/03/26 11:16:24;;;;;;;32.85;17.08;;;18.70;51.60;;;18.51;34.94;101399.53;4907924;29;20126;-54
2021/03/26 11:19:10;;;;;;;32.13;17.55;;;18.80;51.50;;;18.42;34.82;101403.22;4909465;29;20063;-54
2021/03/26 11:21:48;;;;;;;27.30;16.80;;;18.80;51.30;;;18.58;34.99;101392.56;4918554;29;20039;-55
2021/03/26 11:24:15;;;;;;;30.42;18.88;;;18.90;51.20;;;18.67;35.17;101388.91;4942868;28;20070;-50
2021/03/26 11:27:05;;;;;;;29.40;18.20;;;19.00;50.70;;;18.55;35.00;101387.63;4987562;28;20163;-51
2021/03/26 11:29:39;;;;;;;35.15;20.98;;;19.00;50.60;;;18.74;34.63;101384.59;4952079;28;20150;-52
2021/03/26 11:32:28;;;;;;;32.25;21.00;;;19.00;50.50;;;18.87;31.69;101389.28;4971170;28;20562;-54